sensor_id;sensor_type;location;lat;lon;timestamp;P1;durP1;ratioP1;P2;durP2;ratioP2
16928;SDS011;8581;47.334;11.190;2024-01-15T00:04:54;0.50;;;0.50;;
16928;SDS011;8581;47.334;11.190;2024-01-15T00:09:55;0.30;;;0.20;;
16928;SDS011;8581;47.334;11.190;2024-01-15T00:14:57;0.10;;;0.10;;
16928;SDS011;8581;47.334;11.190;2024-01-15T00:19:59;0.30;;;0.30;;
16928;SDS011;8581;47.334;11.190;2024-01-15T00:25:01;0.43;;;0.43;;
16928;SDS011;8581;47.334;11.190;2024-01-15T00:30:02;0.20;;;0.13;;
16928;SDS011;8581;47.334;11.190;2024-01-15T00:35:04;1.03;;;0.30;;
16928;SDS011;8581;47.334;11.190;2024-01-15T00:40:07;0.60;;;0.20;;
16928;SDS011;8581;47.334;11.190;2024-01-15T00:45:09;0.63;;;0.20;;
16928;SDS011;8581;47.334;11.190;2024-01-15T00:50:11;0.20;;;0.20;;
16928;SDS011;8581;47.334;11.190;2024-01-15T00:55:12;0.20;;;0.20;;
16928;SDS011;8581;47.334;11.190;2024-01-15T01:00:14;0.40;;;0.23;;
16928;SDS011;8581;47.334;11.190;2024-01-15T01:05:16;0.10;;;0.10;;
16928;SDS011;8581;47.334;11.190;2024-01-15T01:10:18;0.00;;;0.00;;
16928;SDS011;8581;47.334;11.190;2024-01-15T01:15:20;0.07;;;0.07;;
16928;SDS011;8581;47.334;11.190;2024-01-15T01:20:21;0.10;;;0.10;;
16928;SDS011;8581;47.334;11.190;2024-01-15T01:25:23;0.53;;;0.40;;
16928;SDS011;8581;47.334;11.190;2024-01-15T01:30:24;0.40;;;0.40;;
16928;SDS011;8581;47.334;11.190;2024-01-15T01:35:26;0.53;;;0.47;;
16928;SDS011;8581;47.334;11.190;2024-01-15T01:40:28;0.40;;;0.40;;
16928;SDS011;8581;47.334;11.190;2024-01-15T01:45:29;0.50;;;0.43;;
16928;SDS011;8581;47.334;11.190;2024-01-15T01:50:31;1.17;;;0.50;;
16928;SDS011;8581;47.334;11.190;2024-01-15T01:55:33;0.50;;;0.50;;
16928;SDS011;8581;47.334;11.190;2024-01-15T02:00:34;0.40;;;0.40;;
16928;SDS011;8581;47.334;11.190;2024-01-15T02:05:36;0.30;;;0.30;;
16928;SDS011;8581;47.334;11.190;2024-01-15T02:10:38;0.37;;;0.30;;
16928;SDS011;8581;47.334;11.190;2024-01-15T02:15:39;0.20;;;0.20;;
16928;SDS011;8581;47.334;11.190;2024-01-15T02:20:41;3.50;;;3.20;;
16928;SDS011;8581;47.334;11.190;2024-01-15T02:25:43;0.37;;;0.37;;
16928;SDS011;8581;47.334;11.190;2024-01-15T02:30:45;0.50;;;0.50;;
16928;SDS011;8581;47.334;11.190;2024-01-15T02:35:47;0.20;;;0.20;;
16928;SDS011;8581;47.334;11.190;2024-01-15T02:40:49;0.20;;;0.20;;
16928;SDS011;8581;47.334;11.190;2024-01-15T02:45:50;0.90;;;0.30;;
16928;SDS011;8581;47.334;11.190;2024-01-15T02:50:52;1.40;;;0.20;;
16928;SDS011;8581;47.334;11.190;2024-01-15T02:55:53;0.20;;;0.20;;
16928;SDS011;8581;47.334;11.190;2024-01-15T03:00:55;0.40;;;0.40;;
16928;SDS011;8581;47.334;11.190;2024-01-15T03:05:57;0.43;;;0.30;;
16928;SDS011;8581;47.334;11.190;2024-01-15T03:10:58;0.30;;;0.30;;
16928;SDS011;8581;47.334;11.190;2024-01-15T03:16:00;0.40;;;0.20;;
16928;SDS011;8581;47.334;11.190;2024-01-15T03:21:02;0.20;;;0.20;;
16928;SDS011;8581;47.334;11.190;2024-01-15T03:26:04;0.30;;;0.30;;
16928;SDS011;8581;47.334;11.190;2024-01-15T03:31:05;0.40;;;0.30;;
16928;SDS011;8581;47.334;11.190;2024-01-15T03:36:07;0.40;;;0.30;;
16928;SDS011;8581;47.334;11.190;2024-01-15T03:41:10;0.30;;;0.30;;
16928;SDS011;8581;47.334;11.190;2024-01-15T03:46:11;0.30;;;0.30;;
16928;SDS011;8581;47.334;11.190;2024-01-15T03:51:13;0.67;;;0.40;;
16928;SDS011;8581;47.334;11.190;2024-01-15T03:56:14;0.43;;;0.40;;
16928;SDS011;8581;47.334;11.190;2024-01-15T04:01:16;0.20;;;0.20;;
16928;SDS011;8581;47.334;11.190;2024-01-15T04:06:18;0.70;;;0.50;;
16928;SDS011;8581;47.334;11.190;2024-01-15T04:11:19;0.50;;;0.30;;
16928;SDS011;8581;47.334;11.190;2024-01-15T04:16:21;0.30;;;0.30;;
16928;SDS011;8581;47.334;11.190;2024-01-15T04:21:23;0.23;;;0.23;;
16928;SDS011;8581;47.334;11.190;2024-01-15T04:26:24;0.40;;;0.30;;
16928;SDS011;8581;47.334;11.190;2024-01-15T04:31:26;0.37;;;0.37;;
16928;SDS011;8581;47.334;11.190;2024-01-15T04:36:28;0.57;;;0.57;;
16928;SDS011;8581;47.334;11.190;2024-01-15T04:41:29;0.33;;;0.33;;
16928;SDS011;8581;47.334;11.190;2024-01-15T04:46:31;0.30;;;0.30;;
16928;SDS011;8581;47.334;11.190;2024-01-15T04:51:33;0.77;;;0.40;;
16928;SDS011;8581;47.334;11.190;2024-01-15T04:56:34;0.43;;;0.43;;
16928;SDS011;8581;47.334;11.190;2024-01-15T05:01:36;0.30;;;0.30;;
16928;SDS011;8581;47.334;11.190;2024-01-15T05:06:38;0.30;;;0.30;;
16928;SDS011;8581;47.334;11.190;2024-01-15T05:11:39;0.50;;;0.50;;
16928;SDS011;8581;47.334;11.190;2024-01-15T05:16:49;0.87;;;0.60;;
16928;SDS011;8581;47.334;11.190;2024-01-15T05:21:51;0.73;;;0.73;;
16928;SDS011;8581;47.334;11.190;2024-01-15T05:26:53;0.80;;;0.70;;
16928;SDS011;8581;47.334;11.190;2024-01-15T05:31:54;1.13;;;0.90;;
16928;SDS011;8581;47.334;11.190;2024-01-15T05:36:56;0.93;;;0.87;;
16928;SDS011;8581;47.334;11.190;2024-01-15T05:41:58;1.43;;;1.33;;
16928;SDS011;8581;47.334;11.190;2024-01-15T05:46:59;1.60;;;1.50;;
16928;SDS011;8581;47.334;11.190;2024-01-15T05:52:01;1.50;;;1.37;;
16928;SDS011;8581;47.334;11.190;2024-01-15T05:57:03;1.40;;;1.30;;
16928;SDS011;8581;47.334;11.190;2024-01-15T06:02:05;2.27;;;1.80;;
16928;SDS011;8581;47.334;11.190;2024-01-15T06:07:06;2.27;;;2.07;;
16928;SDS011;8581;47.334;11.190;2024-01-15T06:12:08;1.90;;;1.60;;
16928;SDS011;8581;47.334;11.190;2024-01-15T06:17:09;2.13;;;1.93;;
16928;SDS011;8581;47.334;11.190;2024-01-15T06:22:11;2.50;;;2.20;;
16928;SDS011;8581;47.334;11.190;2024-01-15T06:27:13;3.37;;;2.60;;
16928;SDS011;8581;47.334;11.190;2024-01-15T06:32:14;2.63;;;2.33;;
16928;SDS011;8581;47.334;11.190;2024-01-15T06:37:16;3.40;;;3.10;;
16928;SDS011;8581;47.334;11.190;2024-01-15T06:42:18;4.70;;;3.10;;
16928;SDS011;8581;47.334;11.190;2024-01-15T06:47:19;3.30;;;3.00;;
16928;SDS011;8581;47.334;11.190;2024-01-15T06:52:21;3.63;;;3.23;;
16928;SDS011;8581;47.334;11.190;2024-01-15T06:57:22;4.53;;;3.63;;
16928;SDS011;8581;47.334;11.190;2024-01-15T07:02:24;4.17;;;3.33;;
16928;SDS011;8581;47.334;11.190;2024-01-15T07:07:26;3.87;;;3.47;;
16928;SDS011;8581;47.334;11.190;2024-01-15T07:12:27;3.37;;;3.00;;
16928;SDS011;8581;47.334;11.190;2024-01-15T07:17:29;3.23;;;2.90;;
16928;SDS011;8581;47.334;11.190;2024-01-15T07:22:31;2.97;;;2.67;;
16928;SDS011;8581;47.334;11.190;2024-01-15T07:27:32;3.90;;;3.50;;
16928;SDS011;8581;47.334;11.190;2024-01-15T07:32:34;3.40;;;3.10;;
16928;SDS011;8581;47.334;11.190;2024-01-15T07:37:36;3.50;;;2.93;;
16928;SDS011;8581;47.334;11.190;2024-01-15T07:42:37;4.63;;;3.83;;
16928;SDS011;8581;47.334;11.190;2024-01-15T07:47:39;3.63;;;3.00;;
16928;SDS011;8581;47.334;11.190;2024-01-15T07:52:40;3.60;;;2.70;;
16928;SDS011;8581;47.334;11.190;2024-01-15T07:57:43;3.33;;;3.00;;
16928;SDS011;8581;47.334;11.190;2024-01-15T08:02:45;3.17;;;2.67;;
16928;SDS011;8581;47.334;11.190;2024-01-15T08:07:46;4.77;;;3.43;;
16928;SDS011;8581;47.334;11.190;2024-01-15T08:12:48;4.63;;;3.70;;
16928;SDS011;8581;47.334;11.190;2024-01-15T08:17:50;3.10;;;2.40;;
16928;SDS011;8581;47.334;11.190;2024-01-15T08:22:51;2.40;;;2.20;;
16928;SDS011;8581;47.334;11.190;2024-01-15T08:27:53;2.70;;;2.50;;
16928;SDS011;8581;47.334;11.190;2024-01-15T08:32:55;2.33;;;2.13;;
16928;SDS011;8581;47.334;11.190;2024-01-15T08:37:56;3.03;;;2.37;;
16928;SDS011;8581;47.334;11.190;2024-01-15T08:42:58;2.60;;;2.40;;
16928;SDS011;8581;47.334;11.190;2024-01-15T08:47:59;2.40;;;2.20;;
16928;SDS011;8581;47.334;11.190;2024-01-15T08:53:01;2.77;;;2.57;;
16928;SDS011;8581;47.334;11.190;2024-01-15T08:58:03;2.47;;;2.27;;
16928;SDS011;8581;47.334;11.190;2024-01-15T09:03:05;2.90;;;2.70;;
16928;SDS011;8581;47.334;11.190;2024-01-15T09:08:06;2.50;;;2.30;;
16928;SDS011;8581;47.334;11.190;2024-01-15T09:13:08;2.83;;;2.53;;
16928;SDS011;8581;47.334;11.190;2024-01-15T09:18:10;2.77;;;2.57;;
16928;SDS011;8581;47.334;11.190;2024-01-15T09:23:11;3.17;;;2.87;;
16928;SDS011;8581;47.334;11.190;2024-01-15T09:28:13;2.50;;;2.30;;
16928;SDS011;8581;47.334;11.190;2024-01-15T09:33:15;2.70;;;2.30;;
16928;SDS011;8581;47.334;11.190;2024-01-15T09:38:16;2.77;;;2.50;;
16928;SDS011;8581;47.334;11.190;2024-01-15T09:43:18;2.33;;;2.13;;
16928;SDS011;8581;47.334;11.190;2024-01-15T09:48:19;2.30;;;1.93;;
16928;SDS011;8581;47.334;11.190;2024-01-15T09:53:21;1.90;;;1.77;;
16928;SDS011;8581;47.334;11.190;2024-01-15T09:58:23;1.80;;;1.70;;
16928;SDS011;8581;47.334;11.190;2024-01-15T10:03:24;1.77;;;1.67;;
16928;SDS011;8581;47.334;11.190;2024-01-15T10:08:26;1.60;;;1.50;;
16928;SDS011;8581;47.334;11.190;2024-01-15T10:13:28;2.40;;;2.20;;
16928;SDS011;8581;47.334;11.190;2024-01-15T10:18:29;1.70;;;1.60;;
16928;SDS011;8581;47.334;11.190;2024-01-15T10:23:32;1.93;;;1.73;;
16928;SDS011;8581;47.334;11.190;2024-01-15T10:28:33;1.57;;;1.47;;
16928;SDS011;8581;47.334;11.190;2024-01-15T10:33:35;1.73;;;1.63;;
16928;SDS011;8581;47.334;11.190;2024-01-15T10:38:37;1.83;;;1.60;;
16928;SDS011;8581;47.334;11.190;2024-01-15T10:43:38;1.40;;;1.30;;
16928;SDS011;8581;47.334;11.190;2024-01-15T10:48:40;1.57;;;1.47;;
16928;SDS011;8581;47.334;11.190;2024-01-15T10:53:42;1.63;;;1.53;;
16928;SDS011;8581;47.334;11.190;2024-01-15T10:58:44;1.23;;;1.13;;
16928;SDS011;8581;47.334;11.190;2024-01-15T11:03:45;1.47;;;1.37;;
16928;SDS011;8581;47.334;11.190;2024-01-15T11:08:48;1.43;;;1.33;;
16928;SDS011;8581;47.334;11.190;2024-01-15T11:13:50;1.80;;;1.30;;
16928;SDS011;8581;47.334;11.190;2024-01-15T11:19:04;1.40;;;1.30;;
16928;SDS011;8581;47.334;11.190;2024-01-15T11:24:06;1.00;;;0.90;;
16928;SDS011;8581;47.334;11.190;2024-01-15T11:29:09;1.60;;;1.27;;
16928;SDS011;8581;47.334;11.190;2024-01-15T11:34:10;1.50;;;1.40;;
16928;SDS011;8581;47.334;11.190;2024-01-15T11:44:25;1.10;;;1.00;;
16928;SDS011;8581;47.334;11.190;2024-01-15T11:49:43;2.37;;;1.60;;
16928;SDS011;8581;47.334;11.190;2024-01-15T11:54:34;1.07;;;1.07;;
16928;SDS011;8581;47.334;11.190;2024-01-15T11:59:35;1.10;;;1.00;;
16928;SDS011;8581;47.334;11.190;2024-01-15T12:04:37;0.90;;;0.90;;
16928;SDS011;8581;47.334;11.190;2024-01-15T12:09:43;0.70;;;0.70;;
16928;SDS011;8581;47.334;11.190;2024-01-15T12:14:44;0.83;;;0.80;;
16928;SDS011;8581;47.334;11.190;2024-01-15T12:19:46;0.80;;;0.80;;
16928;SDS011;8581;47.334;11.190;2024-01-15T12:24:47;1.07;;;0.97;;
16928;SDS011;8581;47.334;11.190;2024-01-15T12:29:49;0.67;;;0.67;;
16928;SDS011;8581;47.334;11.190;2024-01-15T12:34:51;0.77;;;0.77;;
16928;SDS011;8581;47.334;11.190;2024-01-15T12:39:52;0.50;;;0.50;;
16928;SDS011;8581;47.334;11.190;2024-01-15T12:44:56;0.50;;;0.50;;
16928;SDS011;8581;47.334;11.190;2024-01-15T12:49:57;0.60;;;0.57;;
16928;SDS011;8581;47.334;11.190;2024-01-15T12:54:58;3.80;;;3.33;;
16928;SDS011;8581;47.334;11.190;2024-01-15T13:00:00;0.50;;;0.50;;
16928;SDS011;8581;47.334;11.190;2024-01-15T13:05:03;0.60;;;0.60;;
16928;SDS011;8581;47.334;11.190;2024-01-15T13:10:03;0.70;;;0.70;;
16928;SDS011;8581;47.334;11.190;2024-01-15T13:15:06;0.60;;;0.60;;
16928;SDS011;8581;47.334;11.190;2024-01-15T13:20:08;0.60;;;0.60;;
16928;SDS011;8581;47.334;11.190;2024-01-15T13:25:10;0.87;;;0.80;;
16928;SDS011;8581;47.334;11.190;2024-01-15T13:30:12;0.60;;;0.60;;
16928;SDS011;8581;47.334;11.190;2024-01-15T13:35:14;1.30;;;1.20;;
16928;SDS011;8581;47.334;11.190;2024-01-15T13:40:15;0.77;;;0.70;;
16928;SDS011;8581;47.334;11.190;2024-01-15T13:45:17;0.80;;;0.80;;
16928;SDS011;8581;47.334;11.190;2024-01-15T13:50:19;0.67;;;0.63;;
16928;SDS011;8581;47.334;11.190;2024-01-15T13:55:20;0.63;;;0.50;;
16928;SDS011;8581;47.334;11.190;2024-01-15T14:00:22;0.90;;;0.70;;
16928;SDS011;8581;47.334;11.190;2024-01-15T14:05:24;0.80;;;0.63;;
16928;SDS011;8581;47.334;11.190;2024-01-15T14:10:25;0.50;;;0.50;;
16928;SDS011;8581;47.334;11.190;2024-01-15T14:15:27;0.70;;;0.70;;
16928;SDS011;8581;47.334;11.190;2024-01-15T14:20:28;0.70;;;0.70;;
16928;SDS011;8581;47.334;11.190;2024-01-15T14:25:30;0.73;;;0.70;;
16928;SDS011;8581;47.334;11.190;2024-01-15T14:30:32;0.70;;;0.70;;
16928;SDS011;8581;47.334;11.190;2024-01-15T14:35:33;0.80;;;0.80;;
16928;SDS011;8581;47.334;11.190;2024-01-15T14:40:35;0.70;;;0.70;;
16928;SDS011;8581;47.334;11.190;2024-01-15T14:45:37;0.83;;;0.70;;
16928;SDS011;8581;47.334;11.190;2024-01-15T14:50:39;0.70;;;0.70;;
16928;SDS011;8581;47.334;11.190;2024-01-15T14:55:40;1.00;;;0.90;;
16928;SDS011;8581;47.334;11.190;2024-01-15T15:00:42;0.60;;;0.60;;
16928;SDS011;8581;47.334;11.190;2024-01-15T15:05:43;1.37;;;0.57;;
16928;SDS011;8581;47.334;11.190;2024-01-15T15:10:45;0.40;;;0.40;;
16928;SDS011;8581;47.334;11.190;2024-01-15T15:15:47;0.57;;;0.57;;
16928;SDS011;8581;47.334;11.190;2024-01-15T15:20:48;0.50;;;0.40;;
16928;SDS011;8581;47.334;11.190;2024-01-15T15:25:50;3.07;;;0.80;;
16928;SDS011;8581;47.334;11.190;2024-01-15T15:30:51;0.50;;;0.50;;
16928;SDS011;8581;47.334;11.190;2024-01-15T15:35:53;1.10;;;0.77;;
16928;SDS011;8581;47.334;11.190;2024-01-15T15:40:55;2.67;;;2.17;;
16928;SDS011;8581;47.334;11.190;2024-01-15T15:45:56;0.60;;;0.60;;
16928;SDS011;8581;47.334;11.190;2024-01-15T15:50:59;0.60;;;0.60;;
16928;SDS011;8581;47.334;11.190;2024-01-15T15:56:01;0.50;;;0.40;;
16928;SDS011;8581;47.334;11.190;2024-01-15T16:01:02;0.57;;;0.57;;
16928;SDS011;8581;47.334;11.190;2024-01-15T16:06:04;0.50;;;0.50;;
16928;SDS011;8581;47.334;11.190;2024-01-15T16:11:06;1.67;;;0.80;;
16928;SDS011;8581;47.334;11.190;2024-01-15T16:16:07;0.60;;;0.60;;
16928;SDS011;8581;47.334;11.190;2024-01-15T16:21:09;0.40;;;0.40;;
16928;SDS011;8581;47.334;11.190;2024-01-15T16:26:11;0.47;;;0.47;;
16928;SDS011;8581;47.334;11.190;2024-01-15T16:31:12;2.30;;;0.50;;
16928;SDS011;8581;47.334;11.190;2024-01-15T16:36:14;0.40;;;0.40;;
16928;SDS011;8581;47.334;11.190;2024-01-15T16:41:15;2.20;;;0.50;;
16928;SDS011;8581;47.334;11.190;2024-01-15T16:46:17;0.90;;;0.50;;
16928;SDS011;8581;47.334;11.190;2024-01-15T16:51:19;0.60;;;0.60;;
16928;SDS011;8581;47.334;11.190;2024-01-15T16:56:21;4.17;;;1.67;;
16928;SDS011;8581;47.334;11.190;2024-01-15T17:01:22;0.50;;;0.47;;
16928;SDS011;8581;47.334;11.190;2024-01-15T17:06:24;0.70;;;0.60;;
16928;SDS011;8581;47.334;11.190;2024-01-15T17:11:25;1.00;;;0.70;;
16928;SDS011;8581;47.334;11.190;2024-01-15T17:16:27;0.80;;;0.50;;
16928;SDS011;8581;47.334;11.190;2024-01-15T17:21:29;0.30;;;0.30;;
16928;SDS011;8581;47.334;11.190;2024-01-15T17:26:30;0.73;;;0.60;;
16928;SDS011;8581;47.334;11.190;2024-01-15T17:31:32;0.80;;;0.50;;
16928;SDS011;8581;47.334;11.190;2024-01-15T17:36:34;1.80;;;0.70;;
16928;SDS011;8581;47.334;11.190;2024-01-15T17:41:35;0.60;;;0.60;;
16928;SDS011;8581;47.334;11.190;2024-01-15T17:46:38;0.40;;;0.40;;
16928;SDS011;8581;47.334;11.190;2024-01-15T17:51:38;0.50;;;0.50;;
16928;SDS011;8581;47.334;11.190;2024-01-15T17:56:40;0.50;;;0.40;;
16928;SDS011;8581;47.334;11.190;2024-01-15T18:01:42;0.43;;;0.43;;
16928;SDS011;8581;47.334;11.190;2024-01-15T18:06:43;0.40;;;0.40;;
16928;SDS011;8581;47.334;11.190;2024-01-15T18:11:45;0.60;;;0.60;;
16928;SDS011;8581;47.334;11.190;2024-01-15T18:16:47;0.50;;;0.50;;
16928;SDS011;8581;47.334;11.190;2024-01-15T18:21:48;0.50;;;0.50;;
16928;SDS011;8581;47.334;11.190;2024-01-15T18:26:50;0.57;;;0.57;;
16928;SDS011;8581;47.334;11.190;2024-01-15T18:31:54;0.70;;;0.70;;
16928;SDS011;8581;47.334;11.190;2024-01-15T18:36:56;2.43;;;1.27;;
16928;SDS011;8581;47.334;11.190;2024-01-15T18:41:57;1.30;;;0.90;;
16928;SDS011;8581;47.334;11.190;2024-01-15T18:46:59;0.60;;;0.50;;
16928;SDS011;8581;47.334;11.190;2024-01-15T18:52:01;1.93;;;0.60;;
16928;SDS011;8581;47.334;11.190;2024-01-15T18:57:02;0.73;;;0.67;;
16928;SDS011;8581;47.334;11.190;2024-01-15T19:02:05;1.00;;;0.90;;
16928;SDS011;8581;47.334;11.190;2024-01-15T19:07:06;0.77;;;0.63;;
16928;SDS011;8581;47.334;11.190;2024-01-15T19:12:08;0.70;;;0.70;;
16928;SDS011;8581;47.334;11.190;2024-01-15T19:17:09;0.70;;;0.70;;
16928;SDS011;8581;47.334;11.190;2024-01-15T19:22:11;0.60;;;0.50;;
16928;SDS011;8581;47.334;11.190;2024-01-15T19:27:13;0.60;;;0.60;;
16928;SDS011;8581;47.334;11.190;2024-01-15T19:32:14;0.80;;;0.73;;
16928;SDS011;8581;47.334;11.190;2024-01-15T19:37:16;1.10;;;0.83;;
16928;SDS011;8581;47.334;11.190;2024-01-15T19:42:18;1.37;;;0.97;;
16928;SDS011;8581;47.334;11.190;2024-01-15T19:47:19;1.13;;;1.00;;
16928;SDS011;8581;47.334;11.190;2024-01-15T19:52:21;1.77;;;0.97;;
16928;SDS011;8581;47.334;11.190;2024-01-15T19:57:22;2.20;;;1.00;;
16928;SDS011;8581;47.334;11.190;2024-01-15T20:02:24;0.97;;;0.83;;
16928;SDS011;8581;47.334;11.190;2024-01-15T20:07:26;1.87;;;1.10;;
16928;SDS011;8581;47.334;11.190;2024-01-15T20:12:27;2.50;;;1.13;;
16928;SDS011;8581;47.334;11.190;2024-01-15T20:17:29;1.23;;;1.00;;
16928;SDS011;8581;47.334;11.190;2024-01-15T20:22:31;0.63;;;0.63;;
16928;SDS011;8581;47.334;11.190;2024-01-15T20:27:33;1.23;;;1.00;;
16928;SDS011;8581;47.334;11.190;2024-01-15T20:32:34;0.80;;;0.80;;
16928;SDS011;8581;47.334;11.190;2024-01-15T20:37:36;1.10;;;0.90;;
16928;SDS011;8581;47.334;11.190;2024-01-15T20:42:38;3.27;;;1.33;;
16928;SDS011;8581;47.334;11.190;2024-01-15T20:47:39;1.17;;;1.00;;
16928;SDS011;8581;47.334;11.190;2024-01-15T20:52:41;1.60;;;0.97;;
16928;SDS011;8581;47.334;11.190;2024-01-15T20:57:42;2.57;;;1.57;;
16928;SDS011;8581;47.334;11.190;2024-01-15T21:02:44;1.73;;;0.93;;
16928;SDS011;8581;47.334;11.190;2024-01-15T21:07:48;1.90;;;1.30;;
16928;SDS011;8581;47.334;11.190;2024-01-15T21:12:47;2.80;;;1.50;;
16928;SDS011;8581;47.334;11.190;2024-01-15T21:17:49;1.10;;;0.77;;
16928;SDS011;8581;47.334;11.190;2024-01-15T21:22:51;0.60;;;0.60;;
16928;SDS011;8581;47.334;11.190;2024-01-15T21:27:53;1.23;;;0.80;;
16928;SDS011;8581;47.334;11.190;2024-01-15T21:32:54;1.10;;;0.80;;
16928;SDS011;8581;47.334;11.190;2024-01-15T21:37:56;1.20;;;1.03;;
16928;SDS011;8581;47.334;11.190;2024-01-15T21:42:58;0.90;;;0.90;;
16928;SDS011;8581;47.334;11.190;2024-01-15T21:46:20;1.10;;;1.00;;
16928;SDS011;8581;47.334;11.190;2024-01-15T21:49:42;2.20;;;0.83;;
16928;SDS011;8581;47.334;11.190;2024-01-15T21:53:03;0.70;;;0.70;;
16928;SDS011;8581;47.334;11.190;2024-01-15T21:56:25;1.63;;;1.00;;
16928;SDS011;8581;47.334;11.190;2024-01-15T21:59:47;0.97;;;0.97;;
16928;SDS011;8581;47.334;11.190;2024-01-15T22:03:08;0.80;;;0.80;;
16928;SDS011;8581;47.334;11.190;2024-01-15T22:06:30;1.67;;;1.17;;
16928;SDS011;8581;47.334;11.190;2024-01-15T22:09:52;1.20;;;1.10;;
16928;SDS011;8581;47.334;11.190;2024-01-15T22:13:13;1.10;;;1.00;;
16928;SDS011;8581;47.334;11.190;2024-01-15T22:16:35;1.00;;;0.83;;
16928;SDS011;8581;47.334;11.190;2024-01-15T22:19:56;1.00;;;0.90;;
16928;SDS011;8581;47.334;11.190;2024-01-15T22:23:18;1.17;;;1.07;;
16928;SDS011;8581;47.334;11.190;2024-01-15T22:26:40;2.00;;;1.10;;
16928;SDS011;8581;47.334;11.190;2024-01-15T22:30:02;1.10;;;1.00;;
16928;SDS011;8581;47.334;11.190;2024-01-15T22:33:24;1.57;;;1.17;;
16928;SDS011;8581;47.334;11.190;2024-01-15T22:36:46;1.03;;;0.97;;
16928;SDS011;8581;47.334;11.190;2024-01-15T22:40:07;1.50;;;1.10;;
16928;SDS011;8581;47.334;11.190;2024-01-15T22:43:29;1.10;;;1.00;;
16928;SDS011;8581;47.334;11.190;2024-01-15T22:46:51;2.33;;;1.30;;
16928;SDS011;8581;47.334;11.190;2024-01-15T22:50:13;1.13;;;1.03;;
16928;SDS011;8581;47.334;11.190;2024-01-15T22:53:34;1.87;;;1.10;;
16928;SDS011;8581;47.334;11.190;2024-01-15T22:56:56;1.57;;;1.03;;
16928;SDS011;8581;47.334;11.190;2024-01-15T23:00:17;1.30;;;1.03;;
16928;SDS011;8581;47.334;11.190;2024-01-15T23:03:39;1.47;;;1.20;;
16928;SDS011;8581;47.334;11.190;2024-01-15T23:07:01;1.60;;;1.20;;
16928;SDS011;8581;47.334;11.190;2024-01-15T23:10:22;1.50;;;1.10;;
16928;SDS011;8581;47.334;11.190;2024-01-15T23:13:44;1.20;;;1.10;;
16928;SDS011;8581;47.334;11.190;2024-01-15T23:17:05;1.57;;;1.10;;
16928;SDS011;8581;47.334;11.190;2024-01-15T23:20:27;1.43;;;1.10;;
16928;SDS011;8581;47.334;11.190;2024-01-15T23:23:49;1.20;;;1.10;;
16928;SDS011;8581;47.334;11.190;2024-01-15T23:27:10;1.27;;;1.17;;
16928;SDS011;8581;47.334;11.190;2024-01-15T23:30:32;1.10;;;1.00;;
16928;SDS011;8581;47.334;11.190;2024-01-15T23:33:54;1.40;;;1.30;;
16928;SDS011;8581;47.334;11.190;2024-01-15T23:37:15;1.83;;;1.10;;
16928;SDS011;8581;47.334;11.190;2024-01-15T23:40:37;1.30;;;1.20;;
16928;SDS011;8581;47.334;11.190;2024-01-15T23:43:58;1.47;;;1.20;;
16928;SDS011;8581;47.334;11.190;2024-01-15T23:47:20;1.07;;;0.90;;
16928;SDS011;8581;47.334;11.190;2024-01-15T23:50:42;1.10;;;1.00;;
16928;SDS011;8581;47.334;11.190;2024-01-15T23:54:03;1.97;;;1.00;;
16928;SDS011;8581;47.334;11.190;2024-01-15T23:57:25;1.20;;;1.10;;
